sensor_id;sensor_type;location;lat;lon;timestamp;temperature;humidity
52245;DHT22;55759;51.586;-1.758;2022-07-29T00:01:25;15.60;67.10
52245;DHT22;55759;51.586;-1.758;2022-07-29T00:03:51;15.70;67.20
52245;DHT22;55759;51.586;-1.758;2022-07-29T00:06:17;15.70;67.40
52245;DHT22;55759;51.586;-1.758;2022-07-29T00:08:43;15.70;67.50
52245;DHT22;55759;51.586;-1.758;2022-07-29T00:11:08;15.70;67.50
52245;DHT22;55759;51.586;-1.758;2022-07-29T00:13:34;15.70;67.60
52245;DHT22;55759;51.586;-1.758;2022-07-29T00:16:00;15.70;67.80
52245;DHT22;55759;51.586;-1.758;2022-07-29T00:18:26;15.60;67.80
52245;DHT22;55759;51.586;-1.758;2022-07-29T00:20:51;15.70;68.00
52245;DHT22;55759;51.586;-1.758;2022-07-29T00:23:17;15.70;68.10
52245;DHT22;55759;51.586;-1.758;2022-07-29T00:25:43;15.70;67.80
52245;DHT22;55759;51.586;-1.758;2022-07-29T00:28:09;15.70;67.60
52245;DHT22;55759;51.586;-1.758;2022-07-29T00:30:34;15.70;67.90
52245;DHT22;55759;51.586;-1.758;2022-07-29T00:33:00;15.70;68.20
52245;DHT22;55759;51.586;-1.758;2022-07-29T00:35:26;15.70;68.30
52245;DHT22;55759;51.586;-1.758;2022-07-29T00:38:15;15.70;68.30
52245;DHT22;55759;51.586;-1.758;2022-07-29T00:40:41;15.80;68.30
52245;DHT22;55759;51.586;-1.758;2022-07-29T00:43:07;15.80;68.30
52245;DHT22;55759;51.586;-1.758;2022-07-29T00:45:33;15.80;68.30
52245;DHT22;55759;51.586;-1.758;2022-07-29T00:47:59;15.80;68.40
52245;DHT22;55759;51.586;-1.758;2022-07-29T00:50:24;15.70;68.60
52245;DHT22;55759;51.586;-1.758;2022-07-29T00:52:50;15.80;68.60
52245;DHT22;55759;51.586;-1.758;2022-07-29T00:55:17;15.70;68.60
52245;DHT22;55759;51.586;-1.758;2022-07-29T00:57:44;15.80;68.60
52245;DHT22;55759;51.586;-1.758;2022-07-29T01:00:21;15.80;68.70
52245;DHT22;55759;51.586;-1.758;2022-07-29T01:02:50;15.80;68.40
52245;DHT22;55759;51.586;-1.758;2022-07-29T01:05:19;15.80;68.70
52245;DHT22;55759;51.586;-1.758;2022-07-29T01:07:47;15.80;68.50
52245;DHT22;55759;51.586;-1.758;2022-07-29T01:10:14;15.80;68.70
52245;DHT22;55759;51.586;-1.758;2022-07-29T01:12:42;15.80;68.80
52245;DHT22;55759;51.586;-1.758;2022-07-29T01:15:09;15.80;68.60
52245;DHT22;55759;51.586;-1.758;2022-07-29T01:20:25;15.80;68.50
52245;DHT22;55759;51.586;-1.758;2022-07-29T01:23:08;15.80;68.60
52245;DHT22;55759;51.586;-1.758;2022-07-29T01:31:00;15.80;68.70
52245;DHT22;55759;51.586;-1.758;2022-07-29T01:33:28;15.80;68.90
52245;DHT22;55759;51.586;-1.758;2022-07-29T01:36:22;15.80;68.80
52245;DHT22;55759;51.586;-1.758;2022-07-29T01:38:57;15.80;68.70
52245;DHT22;55759;51.586;-1.758;2022-07-29T01:41:26;15.80;68.80
52245;DHT22;55759;51.586;-1.758;2022-07-29T01:44:09;15.90;68.90
52245;DHT22;55759;51.586;-1.758;2022-07-29T01:46:40;15.80;68.70
52245;DHT22;55759;51.586;-1.758;2022-07-29T01:49:27;15.90;68.90
52245;DHT22;55759;51.586;-1.758;2022-07-29T01:51:58;15.90;69.10
52245;DHT22;55759;51.586;-1.758;2022-07-29T01:54:35;15.90;69.10
52245;DHT22;55759;51.586;-1.758;2022-07-29T01:57:05;15.90;68.90
52245;DHT22;55759;51.586;-1.758;2022-07-29T01:59:34;15.90;68.90
52245;DHT22;55759;51.586;-1.758;2022-07-29T02:02:01;15.90;69.00
52245;DHT22;55759;51.586;-1.758;2022-07-29T02:04:27;15.90;68.90
52245;DHT22;55759;51.586;-1.758;2022-07-29T02:06:57;15.90;69.20
52245;DHT22;55759;51.586;-1.758;2022-07-29T02:09:25;15.90;69.40
52245;DHT22;55759;51.586;-1.758;2022-07-29T02:11:53;16.00;69.60
52245;DHT22;55759;51.586;-1.758;2022-07-29T02:14:22;15.90;69.60
52245;DHT22;55759;51.586;-1.758;2022-07-29T02:16:52;15.90;69.70
52245;DHT22;55759;51.586;-1.758;2022-07-29T02:19:21;15.90;69.80
52245;DHT22;55759;51.586;-1.758;2022-07-29T02:21:48;15.90;69.60
52245;DHT22;55759;51.586;-1.758;2022-07-29T02:24:17;15.90;69.70
52245;DHT22;55759;51.586;-1.758;2022-07-29T02:26:44;15.90;69.80
52245;DHT22;55759;51.586;-1.758;2022-07-29T02:29:11;15.90;70.10
52245;DHT22;55759;51.586;-1.758;2022-07-29T02:31:39;15.80;70.30
52245;DHT22;55759;51.586;-1.758;2022-07-29T02:34:10;15.80;70.40
52245;DHT22;55759;51.586;-1.758;2022-07-29T02:36:37;15.90;70.50
52245;DHT22;55759;51.586;-1.758;2022-07-29T02:39:04;15.80;70.50
52245;DHT22;55759;51.586;-1.758;2022-07-29T02:41:46;15.80;70.60
52245;DHT22;55759;51.586;-1.758;2022-07-29T02:44:15;15.80;70.50
52245;DHT22;55759;51.586;-1.758;2022-07-29T02:46:52;15.80;70.80
52245;DHT22;55759;51.586;-1.758;2022-07-29T02:49:30;15.70;70.90
52245;DHT22;55759;51.586;-1.758;2022-07-29T02:52:16;15.70;71.20
52245;DHT22;55759;51.586;-1.758;2022-07-29T02:54:55;15.60;71.60
52245;DHT22;55759;51.586;-1.758;2022-07-29T03:00:30;15.40;72.20
52245;DHT22;55759;51.586;-1.758;2022-07-29T03:02:59;15.20;72.60
52245;DHT22;55759;51.586;-1.758;2022-07-29T03:05:26;15.10;72.90
52245;DHT22;55759;51.586;-1.758;2022-07-29T03:08:02;15.00;73.10
52245;DHT22;55759;51.586;-1.758;2022-07-29T03:10:29;14.90;73.40
52245;DHT22;55759;51.586;-1.758;2022-07-29T03:12:56;14.90;73.70
52245;DHT22;55759;51.586;-1.758;2022-07-29T03:15:23;14.80;73.90
52245;DHT22;55759;51.586;-1.758;2022-07-29T03:17:49;14.80;74.10
52245;DHT22;55759;51.586;-1.758;2022-07-29T03:20:16;14.70;74.30
52245;DHT22;55759;51.586;-1.758;2022-07-29T03:22:43;14.70;74.50
52245;DHT22;55759;51.586;-1.758;2022-07-29T03:25:13;14.70;74.40
52245;DHT22;55759;51.586;-1.758;2022-07-29T03:27:40;14.70;74.40
52245;DHT22;55759;51.586;-1.758;2022-07-29T03:30:06;14.70;74.50
52245;DHT22;55759;51.586;-1.758;2022-07-29T03:32:33;14.70;74.50
52245;DHT22;55759;51.586;-1.758;2022-07-29T03:34:59;14.70;74.60
52245;DHT22;55759;51.586;-1.758;2022-07-29T03:37:24;14.70;74.60
52245;DHT22;55759;51.586;-1.758;2022-07-29T03:39:51;14.70;74.70
52245;DHT22;55759;51.586;-1.758;2022-07-29T03:42:19;14.60;74.90
52245;DHT22;55759;51.586;-1.758;2022-07-29T03:44:48;14.60;75.00
52245;DHT22;55759;51.586;-1.758;2022-07-29T03:47:19;14.60;75.10
52245;DHT22;55759;51.586;-1.758;2022-07-29T03:49:48;14.50;75.10
52245;DHT22;55759;51.586;-1.758;2022-07-29T03:52:15;14.50;75.30
52245;DHT22;55759;51.586;-1.758;2022-07-29T03:54:41;14.40;75.40
52245;DHT22;55759;51.586;-1.758;2022-07-29T03:57:07;14.30;75.70
52245;DHT22;55759;51.586;-1.758;2022-07-29T03:59:35;14.30;75.90
52245;DHT22;55759;51.586;-1.758;2022-07-29T04:02:02;14.20;76.00
52245;DHT22;55759;51.586;-1.758;2022-07-29T04:04:28;14.10;76.30
52245;DHT22;55759;51.586;-1.758;2022-07-29T04:06:54;14.10;76.30
52245;DHT22;55759;51.586;-1.758;2022-07-29T04:09:19;14.10;76.50
52245;DHT22;55759;51.586;-1.758;2022-07-29T04:11:45;14.00;76.70
52245;DHT22;55759;51.586;-1.758;2022-07-29T04:14:11;14.00;76.70
52245;DHT22;55759;51.586;-1.758;2022-07-29T04:16:36;14.00;76.50
52245;DHT22;55759;51.586;-1.758;2022-07-29T04:19:02;14.00;76.50
52245;DHT22;55759;51.586;-1.758;2022-07-29T04:21:28;14.00;76.50
52245;DHT22;55759;51.586;-1.758;2022-07-29T04:23:53;14.00;76.60
52245;DHT22;55759;51.586;-1.758;2022-07-29T04:26:20;14.00;76.60
52245;DHT22;55759;51.586;-1.758;2022-07-29T04:28:46;14.00;76.70
52245;DHT22;55759;51.586;-1.758;2022-07-29T04:31:12;14.00;76.70
52245;DHT22;55759;51.586;-1.758;2022-07-29T04:33:39;14.10;76.60
52245;DHT22;55759;51.586;-1.758;2022-07-29T04:36:05;14.10;76.60
52245;DHT22;55759;51.586;-1.758;2022-07-29T04:38:31;14.10;76.50
52245;DHT22;55759;51.586;-1.758;2022-07-29T04:40:56;14.10;76.30
52245;DHT22;55759;51.586;-1.758;2022-07-29T04:43:22;14.10;76.30
52245;DHT22;55759;51.586;-1.758;2022-07-29T04:45:48;14.10;76.30
52245;DHT22;55759;51.586;-1.758;2022-07-29T04:48:13;14.10;76.10
52245;DHT22;55759;51.586;-1.758;2022-07-29T04:50:40;14.20;75.80
52245;DHT22;55759;51.586;-1.758;2022-07-29T04:53:06;14.30;75.30
52245;DHT22;55759;51.586;-1.758;2022-07-29T04:55:33;14.40;75.20
52245;DHT22;55759;51.586;-1.758;2022-07-29T04:57:58;14.40;75.10
52245;DHT22;55759;51.586;-1.758;2022-07-29T05:00:24;14.50;74.80
52245;DHT22;55759;51.586;-1.758;2022-07-29T05:02:50;14.60;74.70
52245;DHT22;55759;51.586;-1.758;2022-07-29T05:05:16;14.60;74.30
52245;DHT22;55759;51.586;-1.758;2022-07-29T05:07:41;14.70;74.10
52245;DHT22;55759;51.586;-1.758;2022-07-29T05:10:08;14.70;74.00
52245;DHT22;55759;51.586;-1.758;2022-07-29T05:12:34;14.80;74.00
52245;DHT22;55759;51.586;-1.758;2022-07-29T05:15:00;14.80;73.50
52245;DHT22;55759;51.586;-1.758;2022-07-29T05:17:25;14.80;73.50
52245;DHT22;55759;51.586;-1.758;2022-07-29T05:19:52;14.90;73.30
52245;DHT22;55759;51.586;-1.758;2022-07-29T05:22:18;15.00;73.00
52245;DHT22;55759;51.586;-1.758;2022-07-29T05:24:44;15.00;72.60
52245;DHT22;55759;51.586;-1.758;2022-07-29T05:27:10;15.10;72.90
52245;DHT22;55759;51.586;-1.758;2022-07-29T05:29:36;15.10;72.80
52245;DHT22;55759;51.586;-1.758;2022-07-29T05:32:02;15.10;72.60
52245;DHT22;55759;51.586;-1.758;2022-07-29T05:34:28;15.10;72.30
52245;DHT22;55759;51.586;-1.758;2022-07-29T05:36:54;15.10;72.20
52245;DHT22;55759;51.586;-1.758;2022-07-29T05:39:20;15.10;72.30
52245;DHT22;55759;51.586;-1.758;2022-07-29T05:41:46;15.10;72.60
52245;DHT22;55759;51.586;-1.758;2022-07-29T05:44:12;15.10;72.40
52245;DHT22;55759;51.586;-1.758;2022-07-29T05:46:39;15.10;72.50
52245;DHT22;55759;51.586;-1.758;2022-07-29T05:49:05;15.10;72.40
52245;DHT22;55759;51.586;-1.758;2022-07-29T05:51:32;15.10;72.60
52245;DHT22;55759;51.586;-1.758;2022-07-29T05:53:59;15.00;72.90
52245;DHT22;55759;51.586;-1.758;2022-07-29T05:56:25;15.00;73.30
52245;DHT22;55759;51.586;-1.758;2022-07-29T05:58:51;14.90;73.60
52245;DHT22;55759;51.586;-1.758;2022-07-29T06:01:17;14.90;73.80
52245;DHT22;55759;51.586;-1.758;2022-07-29T06:03:42;14.90;73.90
52245;DHT22;55759;51.586;-1.758;2022-07-29T06:06:08;14.80;74.00
52245;DHT22;55759;51.586;-1.758;2022-07-29T06:08:35;14.80;74.20
52245;DHT22;55759;51.586;-1.758;2022-07-29T06:11:02;14.90;74.40
52245;DHT22;55759;51.586;-1.758;2022-07-29T06:13:28;14.90;74.40
52245;DHT22;55759;51.586;-1.758;2022-07-29T06:15:53;15.00;74.50
52245;DHT22;55759;51.586;-1.758;2022-07-29T06:18:19;15.10;74.60
52245;DHT22;55759;51.586;-1.758;2022-07-29T06:20:46;15.10;74.60
52245;DHT22;55759;51.586;-1.758;2022-07-29T06:23:12;15.20;74.70
52245;DHT22;55759;51.586;-1.758;2022-07-29T06:25:40;15.40;74.00
52245;DHT22;55759;51.586;-1.758;2022-07-29T06:28:05;15.50;73.70
52245;DHT22;55759;51.586;-1.758;2022-07-29T06:30:32;15.60;73.60
52245;DHT22;55759;51.586;-1.758;2022-07-29T06:32:57;15.70;73.20
52245;DHT22;55759;51.586;-1.758;2022-07-29T06:35:23;15.90;73.00
52245;DHT22;55759;51.586;-1.758;2022-07-29T06:37:49;16.00;73.00
52245;DHT22;55759;51.586;-1.758;2022-07-29T06:40:15;16.10;72.80
52245;DHT22;55759;51.586;-1.758;2022-07-29T06:42:59;16.20;72.00
52245;DHT22;55759;51.586;-1.758;2022-07-29T06:45:25;16.40;71.60
52245;DHT22;55759;51.586;-1.758;2022-07-29T06:47:50;16.50;71.80
52245;DHT22;55759;51.586;-1.758;2022-07-29T06:50:16;16.60;71.40
52245;DHT22;55759;51.586;-1.758;2022-07-29T06:52:42;16.60;71.60
52245;DHT22;55759;51.586;-1.758;2022-07-29T06:55:08;16.80;71.40
52245;DHT22;55759;51.586;-1.758;2022-07-29T06:57:34;16.90;70.90
52245;DHT22;55759;51.586;-1.758;2022-07-29T07:00:00;17.00;70.60
52245;DHT22;55759;51.586;-1.758;2022-07-29T07:02:26;17.10;70.00
52245;DHT22;55759;51.586;-1.758;2022-07-29T07:04:52;17.10;69.90
52245;DHT22;55759;51.586;-1.758;2022-07-29T07:07:18;17.20;69.60
52245;DHT22;55759;51.586;-1.758;2022-07-29T07:09:44;17.30;69.80
52245;DHT22;55759;51.586;-1.758;2022-07-29T07:12:10;17.50;69.60
52245;DHT22;55759;51.586;-1.758;2022-07-29T07:14:36;17.60;69.60
52245;DHT22;55759;51.586;-1.758;2022-07-29T07:17:02;17.60;69.30
52245;DHT22;55759;51.586;-1.758;2022-07-29T07:19:29;17.70;69.10
52245;DHT22;55759;51.586;-1.758;2022-07-29T07:21:55;17.80;69.10
52245;DHT22;55759;51.586;-1.758;2022-07-29T07:24:20;17.90;68.90
52245;DHT22;55759;51.586;-1.758;2022-07-29T07:26:46;17.90;68.40
52245;DHT22;55759;51.586;-1.758;2022-07-29T07:29:12;18.10;68.80
52245;DHT22;55759;51.586;-1.758;2022-07-29T07:31:38;18.20;69.00
52245;DHT22;55759;51.586;-1.758;2022-07-29T07:34:04;18.30;67.80
52245;DHT22;55759;51.586;-1.758;2022-07-29T07:36:30;18.50;68.00
52245;DHT22;55759;51.586;-1.758;2022-07-29T07:38:56;18.60;67.30
52245;DHT22;55759;51.586;-1.758;2022-07-29T07:41:22;18.60;67.50
52245;DHT22;55759;51.586;-1.758;2022-07-29T07:43:48;18.80;67.60
52245;DHT22;55759;51.586;-1.758;2022-07-29T07:46:14;18.80;67.20
52245;DHT22;55759;51.586;-1.758;2022-07-29T07:48:40;19.00;67.00
52245;DHT22;55759;51.586;-1.758;2022-07-29T07:51:06;19.10;65.90
52245;DHT22;55759;51.586;-1.758;2022-07-29T07:53:32;19.20;65.80
52245;DHT22;55759;51.586;-1.758;2022-07-29T07:55:58;19.30;65.40
52245;DHT22;55759;51.586;-1.758;2022-07-29T07:58:26;19.40;65.80
52245;DHT22;55759;51.586;-1.758;2022-07-29T08:00:52;19.50;65.60
52245;DHT22;55759;51.586;-1.758;2022-07-29T08:03:20;19.60;64.30
52245;DHT22;55759;51.586;-1.758;2022-07-29T08:05:48;19.60;63.80
52245;DHT22;55759;51.586;-1.758;2022-07-29T08:08:16;19.70;64.50
52245;DHT22;55759;51.586;-1.758;2022-07-29T08:10:41;19.70;64.40
52245;DHT22;55759;51.586;-1.758;2022-07-29T08:13:26;19.80;64.00
52245;DHT22;55759;51.586;-1.758;2022-07-29T08:15:56;19.90;63.30
52245;DHT22;55759;51.586;-1.758;2022-07-29T08:18:36;20.00;62.50
52245;DHT22;55759;51.586;-1.758;2022-07-29T08:21:02;20.10;61.80
52245;DHT22;55759;51.586;-1.758;2022-07-29T08:23:28;20.20;60.70
52245;DHT22;55759;51.586;-1.758;2022-07-29T08:26:04;20.40;60.80
52245;DHT22;55759;51.586;-1.758;2022-07-29T08:28:30;20.50;61.20
52245;DHT22;55759;51.586;-1.758;2022-07-29T08:30:56;20.60;59.80
52245;DHT22;55759;51.586;-1.758;2022-07-29T08:33:22;20.70;57.90
52245;DHT22;55759;51.586;-1.758;2022-07-29T08:35:50;20.90;54.60
52245;DHT22;55759;51.586;-1.758;2022-07-29T08:38:16;21.00;53.60
52245;DHT22;55759;51.586;-1.758;2022-07-29T08:40:42;21.10;53.30
52245;DHT22;55759;51.586;-1.758;2022-07-29T08:43:08;21.20;53.60
52245;DHT22;55759;51.586;-1.758;2022-07-29T08:45:46;21.30;53.20
52245;DHT22;55759;51.586;-1.758;2022-07-29T08:48:13;21.40;52.60
52245;DHT22;55759;51.586;-1.758;2022-07-29T08:50:41;21.60;50.50
52245;DHT22;55759;51.586;-1.758;2022-07-29T08:53:12;21.60;50.30
52245;DHT22;55759;51.586;-1.758;2022-07-29T08:55:40;21.70;49.50
52245;DHT22;55759;51.586;-1.758;2022-07-29T08:58:07;21.80;48.40
52245;DHT22;55759;51.586;-1.758;2022-07-29T09:00:33;21.90;48.40
52245;DHT22;55759;51.586;-1.758;2022-07-29T09:03:01;22.10;46.50
52245;DHT22;55759;51.586;-1.758;2022-07-29T09:05:30;22.10;46.10
52245;DHT22;55759;51.586;-1.758;2022-07-29T09:07:57;22.30;45.60
52245;DHT22;55759;51.586;-1.758;2022-07-29T09:10:23;22.40;44.60
52245;DHT22;55759;51.586;-1.758;2022-07-29T09:12:48;22.40;41.20
52245;DHT22;55759;51.586;-1.758;2022-07-29T09:15:14;22.40;43.10
52245;DHT22;55759;51.586;-1.758;2022-07-29T09:17:49;22.40;44.20
52245;DHT22;55759;51.586;-1.758;2022-07-29T09:20:19;22.50;44.50
52245;DHT22;55759;51.586;-1.758;2022-07-29T09:22:46;22.70;46.10
52245;DHT22;55759;51.586;-1.758;2022-07-29T09:25:15;22.80;44.80
52245;DHT22;55759;51.586;-1.758;2022-07-29T09:28:16;23.00;44.00
52245;DHT22;55759;51.586;-1.758;2022-07-29T09:30:56;23.00;44.00
52245;DHT22;55759;51.586;-1.758;2022-07-29T09:33:31;23.10;45.10
52245;DHT22;55759;51.586;-1.758;2022-07-29T09:36:08;23.30;44.40
52245;DHT22;55759;51.586;-1.758;2022-07-29T09:38:35;23.40;43.70
52245;DHT22;55759;51.586;-1.758;2022-07-29T09:41:04;23.50;43.30
52245;DHT22;55759;51.586;-1.758;2022-07-29T09:43:30;23.60;42.50
52245;DHT22;55759;51.586;-1.758;2022-07-29T09:45:56;23.70;43.20
52245;DHT22;55759;51.586;-1.758;2022-07-29T09:48:23;23.70;41.20
52245;DHT22;55759;51.586;-1.758;2022-07-29T09:50:49;23.80;40.60
52245;DHT22;55759;51.586;-1.758;2022-07-29T09:53:42;23.80;41.60
52245;DHT22;55759;51.586;-1.758;2022-07-29T09:56:08;23.90;42.10
52245;DHT22;55759;51.586;-1.758;2022-07-29T09:58:36;23.90;42.80
52245;DHT22;55759;51.586;-1.758;2022-07-29T10:01:02;24.00;41.30
52245;DHT22;55759;51.586;-1.758;2022-07-29T10:03:28;24.00;43.30
52245;DHT22;55759;51.586;-1.758;2022-07-29T10:06:10;24.10;41.80
52245;DHT22;55759;51.586;-1.758;2022-07-29T10:08:37;24.10;40.50
52245;DHT22;55759;51.586;-1.758;2022-07-29T10:11:14;24.20;41.50
52245;DHT22;55759;51.586;-1.758;2022-07-29T10:13:41;24.30;41.50
52245;DHT22;55759;51.586;-1.758;2022-07-29T10:16:08;24.40;40.60
52245;DHT22;55759;51.586;-1.758;2022-07-29T10:18:34;24.60;41.90
52245;DHT22;55759;51.586;-1.758;2022-07-29T10:21:01;24.70;40.80
52245;DHT22;55759;51.586;-1.758;2022-07-29T10:23:28;24.90;41.40
52245;DHT22;55759;51.586;-1.758;2022-07-29T10:25:54;25.10;41.10
52245;DHT22;55759;51.586;-1.758;2022-07-29T10:28:20;25.20;40.20
52245;DHT22;55759;51.586;-1.758;2022-07-29T10:30:46;25.30;40.00
52245;DHT22;55759;51.586;-1.758;2022-07-29T10:44:39;26.50;38.40
52245;DHT22;55759;51.586;-1.758;2022-07-29T10:47:06;26.90;37.40
52245;DHT22;55759;51.586;-1.758;2022-07-29T10:49:32;27.50;36.30
52245;DHT22;55759;51.586;-1.758;2022-07-29T10:57:33;30.60;33.70
52245;DHT22;55759;51.586;-1.758;2022-07-29T11:05:07;34.60;26.30
52245;DHT22;55759;51.586;-1.758;2022-07-29T11:07:35;35.60;25.20
52245;DHT22;55759;51.586;-1.758;2022-07-29T11:15:12;38.50;22.70
52245;DHT22;55759;51.586;-1.758;2022-07-29T11:22:58;41.30;19.60
52245;DHT22;55759;51.586;-1.758;2022-07-29T11:25:30;41.40;19.10
52245;DHT22;55759;51.586;-1.758;2022-07-29T11:28:10;41.80;18.90
52245;DHT22;55759;51.586;-1.758;2022-07-29T11:30:52;42.70;18.80
52245;DHT22;55759;51.586;-1.758;2022-07-29T11:33:31;44.00;18.20
52245;DHT22;55759;51.586;-1.758;2022-07-29T11:36:14;44.70;16.70
52245;DHT22;55759;51.586;-1.758;2022-07-29T11:38:40;43.10;17.50
52245;DHT22;55759;51.586;-1.758;2022-07-29T11:41:21;41.40;18.80
52245;DHT22;55759;51.586;-1.758;2022-07-29T11:43:53;39.30;20.50
52245;DHT22;55759;51.586;-1.758;2022-07-29T11:46:49;37.30;22.20
52245;DHT22;55759;51.586;-1.758;2022-07-29T11:49:23;35.80;24.30
52245;DHT22;55759;51.586;-1.758;2022-07-29T11:51:53;36.00;24.00
52245;DHT22;55759;51.586;-1.758;2022-07-29T11:54:25;38.70;22.10
52245;DHT22;55759;51.586;-1.758;2022-07-29T11:56:54;39.70;20.50
52245;DHT22;55759;51.586;-1.758;2022-07-29T11:59:23;38.50;20.40
52245;DHT22;55759;51.586;-1.758;2022-07-29T12:01:59;37.00;22.60
52245;DHT22;55759;51.586;-1.758;2022-07-29T12:04:25;35.70;23.40
52245;DHT22;55759;51.586;-1.758;2022-07-29T12:06:54;34.50;24.60
52245;DHT22;55759;51.586;-1.758;2022-07-29T12:09:22;33.60;25.00
52245;DHT22;55759;51.586;-1.758;2022-07-29T12:11:49;33.10;25.40
52245;DHT22;55759;51.586;-1.758;2022-07-29T12:14:33;34.80;24.40
52245;DHT22;55759;51.586;-1.758;2022-07-29T12:17:00;37.80;21.60
52245;DHT22;55759;51.586;-1.758;2022-07-29T12:19:26;38.90;20.90
52245;DHT22;55759;51.586;-1.758;2022-07-29T12:21:54;40.60;19.10
52245;DHT22;55759;51.586;-1.758;2022-07-29T12:24:20;42.70;18.30
52245;DHT22;55759;51.586;-1.758;2022-07-29T12:26:57;45.10;17.00
52245;DHT22;55759;51.586;-1.758;2022-07-29T12:29:23;47.00;14.80
52245;DHT22;55759;51.586;-1.758;2022-07-29T12:31:53;47.80;15.70
52245;DHT22;55759;51.586;-1.758;2022-07-29T12:34:22;48.10;14.70
52245;DHT22;55759;51.586;-1.758;2022-07-29T12:36:48;46.50;15.10
52245;DHT22;55759;51.586;-1.758;2022-07-29T12:39:16;44.60;16.40
52245;DHT22;55759;51.586;-1.758;2022-07-29T12:41:43;43.50;16.60
52245;DHT22;55759;51.586;-1.758;2022-07-29T12:44:09;44.10;17.30
52245;DHT22;55759;51.586;-1.758;2022-07-29T12:46:35;46.00;16.50
52245;DHT22;55759;51.586;-1.758;2022-07-29T12:49:01;48.10;14.80
52245;DHT22;55759;51.586;-1.758;2022-07-29T12:51:41;49.70;13.90
52245;DHT22;55759;51.586;-1.758;2022-07-29T12:54:13;50.80;13.30
52245;DHT22;55759;51.586;-1.758;2022-07-29T12:56:44;51.70;12.60
52245;DHT22;55759;51.586;-1.758;2022-07-29T12:59:20;51.60;12.40
52245;DHT22;55759;51.586;-1.758;2022-07-29T13:01:49;51.90;12.70
52245;DHT22;55759;51.586;-1.758;2022-07-29T13:04:29;51.60;12.40
52245;DHT22;55759;51.586;-1.758;2022-07-29T13:07:03;51.60;12.40
52245;DHT22;55759;51.586;-1.758;2022-07-29T13:09:39;51.00;12.30
52245;DHT22;55759;51.586;-1.758;2022-07-29T13:12:10;48.90;13.20
52245;DHT22;55759;51.586;-1.758;2022-07-29T13:14:38;46.10;14.70
52245;DHT22;55759;51.586;-1.758;2022-07-29T13:17:20;46.20;15.00
52245;DHT22;55759;51.586;-1.758;2022-07-29T13:22:16;49.90;13.40
52245;DHT22;55759;51.586;-1.758;2022-07-29T13:24:51;48.30;13.70
52245;DHT22;55759;51.586;-1.758;2022-07-29T13:27:22;46.00;14.70
52245;DHT22;55759;51.586;-1.758;2022-07-29T13:30:02;44.10;15.90
52245;DHT22;55759;51.586;-1.758;2022-07-29T13:32:32;42.70;17.10
52245;DHT22;55759;51.586;-1.758;2022-07-29T13:35:04;44.40;16.80
52245;DHT22;55759;51.586;-1.758;2022-07-29T13:37:39;47.10;14.60
52245;DHT22;55759;51.586;-1.758;2022-07-29T13:40:07;49.50;13.50
52245;DHT22;55759;51.586;-1.758;2022-07-29T13:42:33;51.00;12.90
52245;DHT22;55759;51.586;-1.758;2022-07-29T13:45:00;52.30;12.20
52245;DHT22;55759;51.586;-1.758;2022-07-29T13:47:26;53.50;11.60
52245;DHT22;55759;51.586;-1.758;2022-07-29T13:49:55;53.90;11.60
52245;DHT22;55759;51.586;-1.758;2022-07-29T13:52:21;52.30;11.90
52245;DHT22;55759;51.586;-1.758;2022-07-29T13:54:47;50.30;12.50
52245;DHT22;55759;51.586;-1.758;2022-07-29T13:57:14;49.20;13.10
52245;DHT22;55759;51.586;-1.758;2022-07-29T13:59:43;48.40;13.80
52245;DHT22;55759;51.586;-1.758;2022-07-29T14:02:11;49.60;13.10
52245;DHT22;55759;51.586;-1.758;2022-07-29T14:04:38;51.00;12.50
52245;DHT22;55759;51.586;-1.758;2022-07-29T14:07:04;51.00;12.20
52245;DHT22;55759;51.586;-1.758;2022-07-29T14:09:32;50.20;12.60
52245;DHT22;55759;51.586;-1.758;2022-07-29T14:11:58;50.80;12.30
52245;DHT22;55759;51.586;-1.758;2022-07-29T14:14:24;51.40;12.10
52245;DHT22;55759;51.586;-1.758;2022-07-29T14:16:52;52.30;12.00
52245;DHT22;55759;51.586;-1.758;2022-07-29T14:19:21;53.80;11.70
52245;DHT22;55759;51.586;-1.758;2022-07-29T14:21:46;52.90;11.20
52245;DHT22;55759;51.586;-1.758;2022-07-29T14:24:12;52.30;11.40
52245;DHT22;55759;51.586;-1.758;2022-07-29T14:26:40;52.80;11.70
52245;DHT22;55759;51.586;-1.758;2022-07-29T14:29:06;54.00;11.30
52245;DHT22;55759;51.586;-1.758;2022-07-29T14:31:32;55.20;10.70
52245;DHT22;55759;51.586;-1.758;2022-07-29T14:34:05;56.30;10.90
52245;DHT22;55759;51.586;-1.758;2022-07-29T14:36:31;56.30;10.70
52245;DHT22;55759;51.586;-1.758;2022-07-29T14:38:57;56.20;10.50
52245;DHT22;55759;51.586;-1.758;2022-07-29T14:41:22;55.10;10.80
52245;DHT22;55759;51.586;-1.758;2022-07-29T14:43:50;55.10;10.90
52245;DHT22;55759;51.586;-1.758;2022-07-29T14:46:26;56.00;10.80
52245;DHT22;55759;51.586;-1.758;2022-07-29T14:48:55;56.90;10.20
52245;DHT22;55759;51.586;-1.758;2022-07-29T14:51:21;56.50;10.60
52245;DHT22;55759;51.586;-1.758;2022-07-29T14:53:46;54.20;10.70
52245;DHT22;55759;51.586;-1.758;2022-07-29T14:56:23;51.50;11.50
52245;DHT22;55759;51.586;-1.758;2022-07-29T14:58:49;50.20;12.40
52245;DHT22;55759;51.586;-1.758;2022-07-29T15:01:14;51.10;12.40
52245;DHT22;55759;51.586;-1.758;2022-07-29T15:03:40;52.90;11.50
52245;DHT22;55759;51.586;-1.758;2022-07-29T15:06:06;54.00;11.00
52245;DHT22;55759;51.586;-1.758;2022-07-29T15:08:32;52.50;11.40
52245;DHT22;55759;51.586;-1.758;2022-07-29T15:10:57;51.40;12.40
52245;DHT22;55759;51.586;-1.758;2022-07-29T15:13:25;51.50;11.70
52245;DHT22;55759;51.586;-1.758;2022-07-29T15:15:51;49.60;12.60
52245;DHT22;55759;51.586;-1.758;2022-07-29T15:18:19;47.10;13.60
52245;DHT22;55759;51.586;-1.758;2022-07-29T15:20:47;44.70;14.70
52245;DHT22;55759;51.586;-1.758;2022-07-29T15:23:13;42.70;15.50
52245;DHT22;55759;51.586;-1.758;2022-07-29T15:25:39;40.90;16.60
52245;DHT22;55759;51.586;-1.758;2022-07-29T15:28:05;39.40;17.90
52245;DHT22;55759;51.586;-1.758;2022-07-29T15:30:34;38.30;19.20
52245;DHT22;55759;51.586;-1.758;2022-07-29T15:33:06;37.40;19.60
52245;DHT22;55759;51.586;-1.758;2022-07-29T15:35:36;36.60;20.70
52245;DHT22;55759;51.586;-1.758;2022-07-29T15:38:02;35.90;21.30
52245;DHT22;55759;51.586;-1.758;2022-07-29T15:40:28;35.20;22.10
52245;DHT22;55759;51.586;-1.758;2022-07-29T15:42:54;34.90;22.40
52245;DHT22;55759;51.586;-1.758;2022-07-29T15:45:20;34.60;22.70
52245;DHT22;55759;51.586;-1.758;2022-07-29T15:47:48;34.10;23.00
52245;DHT22;55759;51.586;-1.758;2022-07-29T15:50:14;34.00;23.40
52245;DHT22;55759;51.586;-1.758;2022-07-29T15:52:49;34.00;23.90
52245;DHT22;55759;51.586;-1.758;2022-07-29T15:55:16;34.10;23.70
52245;DHT22;55759;51.586;-1.758;2022-07-29T15:57:41;34.10;23.90
52245;DHT22;55759;51.586;-1.758;2022-07-29T16:00:08;34.10;23.80
52245;DHT22;55759;51.586;-1.758;2022-07-29T16:02:38;34.10;23.90
52245;DHT22;55759;51.586;-1.758;2022-07-29T16:05:04;34.00;23.60
52245;DHT22;55759;51.586;-1.758;2022-07-29T16:07:30;34.10;24.00
52245;DHT22;55759;51.586;-1.758;2022-07-29T16:09:55;34.00;24.00